sensor_id;sensor_type;location;lat;lon;timestamp;temperature;humidity
34201;DHT22;20469;55.638;37.670;2023-05-07T00:00:24;1.60;1.00
34201;DHT22;20469;55.638;37.670;2023-05-07T00:02:51;1.60;1.00
34201;DHT22;20469;55.638;37.670;2023-05-07T00:05:19;1.60;1.00
34201;DHT22;20469;55.638;37.670;2023-05-07T00:07:47;1.60;1.00
34201;DHT22;20469;55.638;37.670;2023-05-07T00:10:14;1.50;1.00
34201;DHT22;20469;55.638;37.670;2023-05-07T00:12:41;1.60;1.00
34201;DHT22;20469;55.638;37.670;2023-05-07T00:15:09;1.60;1.00
34201;DHT22;20469;55.638;37.670;2023-05-07T00:17:37;1.50;1.00
34201;DHT22;20469;55.638;37.670;2023-05-07T00:20:05;1.50;1.00
34201;DHT22;20469;55.638;37.670;2023-05-07T00:22:33;1.40;1.00
34201;DHT22;20469;55.638;37.670;2023-05-07T00:25:00;1.40;1.00
34201;DHT22;20469;55.638;37.670;2023-05-07T00:27:32;1.40;1.00
34201;DHT22;20469;55.638;37.670;2023-05-07T00:30:00;1.40;1.00
34201;DHT22;20469;55.638;37.670;2023-05-07T00:32:33;1.40;1.00
34201;DHT22;20469;55.638;37.670;2023-05-07T00:35:00;1.50;1.00
34201;DHT22;20469;55.638;37.670;2023-05-07T00:37:30;1.40;1.00
34201;DHT22;20469;55.638;37.670;2023-05-07T00:39:58;1.30;1.00
34201;DHT22;20469;55.638;37.670;2023-05-07T00:42:25;1.30;1.00
34201;DHT22;20469;55.638;37.670;2023-05-07T00:44:52;1.30;1.00
34201;DHT22;20469;55.638;37.670;2023-05-07T00:47:19;1.30;1.00
34201;DHT22;20469;55.638;37.670;2023-05-07T00:49:46;1.30;1.00
34201;DHT22;20469;55.638;37.670;2023-05-07T00:52:16;1.20;1.00
34201;DHT22;20469;55.638;37.670;2023-05-07T00:54:44;1.30;1.00
34201;DHT22;20469;55.638;37.670;2023-05-07T00:57:12;1.20;1.00
34201;DHT22;20469;55.638;37.670;2023-05-07T00:59:39;1.30;1.00
34201;DHT22;20469;55.638;37.670;2023-05-07T01:02:07;1.20;1.00
34201;DHT22;20469;55.638;37.670;2023-05-07T01:04:35;1.30;1.00
34201;DHT22;20469;55.638;37.670;2023-05-07T01:07:03;1.20;1.00
34201;DHT22;20469;55.638;37.670;2023-05-07T01:09:31;1.10;1.00
34201;DHT22;20469;55.638;37.670;2023-05-07T01:11:59;1.10;1.00
34201;DHT22;20469;55.638;37.670;2023-05-07T01:14:26;1.10;1.00
34201;DHT22;20469;55.638;37.670;2023-05-07T01:16:54;1.10;1.00
34201;DHT22;20469;55.638;37.670;2023-05-07T01:19:22;1.10;1.00
34201;DHT22;20469;55.638;37.670;2023-05-07T01:21:49;1.10;1.00
34201;DHT22;20469;55.638;37.670;2023-05-07T01:24:18;1.00;1.00
34201;DHT22;20469;55.638;37.670;2023-05-07T01:26:45;1.00;1.00
34201;DHT22;20469;55.638;37.670;2023-05-07T01:29:12;1.00;1.00
34201;DHT22;20469;55.638;37.670;2023-05-07T01:31:41;1.00;4.40
34201;DHT22;20469;55.638;37.670;2023-05-07T01:34:11;1.00;8.80
34201;DHT22;20469;55.638;37.670;2023-05-07T01:36:40;1.00;10.50
34201;DHT22;20469;55.638;37.670;2023-05-07T01:39:09;1.00;14.50
34201;DHT22;20469;55.638;37.670;2023-05-07T01:41:37;1.00;16.40
34201;DHT22;20469;55.638;37.670;2023-05-07T01:44:05;1.00;17.90
34201;DHT22;20469;55.638;37.670;2023-05-07T01:46:33;1.00;21.20
34201;DHT22;20469;55.638;37.670;2023-05-07T01:49:01;1.00;23.60
34201;DHT22;20469;55.638;37.670;2023-05-07T01:51:28;1.30;31.40
34201;DHT22;20469;55.638;37.670;2023-05-07T01:53:55;1.20;28.70
34201;DHT22;20469;55.638;37.670;2023-05-07T01:56:23;1.10;26.60
34201;DHT22;20469;55.638;37.670;2023-05-07T01:58:51;1.00;26.30
34201;DHT22;20469;55.638;37.670;2023-05-07T02:01:18;1.10;28.50
34201;DHT22;20469;55.638;37.670;2023-05-07T02:03:46;1.20;29.80
34201;DHT22;20469;55.638;37.670;2023-05-07T02:06:13;1.20;27.50
34201;DHT22;20469;55.638;37.670;2023-05-07T02:08:41;1.20;23.80
34201;DHT22;20469;55.638;37.670;2023-05-07T02:11:08;1.20;21.70
34201;DHT22;20469;55.638;37.670;2023-05-07T02:13:36;1.40;24.20
34201;DHT22;20469;55.638;37.670;2023-05-07T02:16:05;1.20;17.90
34201;DHT22;20469;55.638;37.670;2023-05-07T02:18:33;1.30;16.20
34201;DHT22;20469;55.638;37.670;2023-05-07T02:21:01;1.40;15.20
34201;DHT22;20469;55.638;37.670;2023-05-07T02:23:28;1.70;16.90
34201;DHT22;20469;55.638;37.670;2023-05-07T02:25:55;1.60;8.40
34201;DHT22;20469;55.638;37.670;2023-05-07T02:28:22;1.70;7.40
34201;DHT22;20469;55.638;37.670;2023-05-07T02:30:49;1.70;2.10
34201;DHT22;20469;55.638;37.670;2023-05-07T02:33:17;1.80;2.50
34201;DHT22;20469;55.638;37.670;2023-05-07T02:35:44;1.90;1.00
34201;DHT22;20469;55.638;37.670;2023-05-07T02:38:11;2.00;1.00
34201;DHT22;20469;55.638;37.670;2023-05-07T02:40:39;1.90;1.00
34201;DHT22;20469;55.638;37.670;2023-05-07T02:43:06;1.90;1.00
34201;DHT22;20469;55.638;37.670;2023-05-07T02:45:33;2.00;1.00
34201;DHT22;20469;55.638;37.670;2023-05-07T02:48:01;1.90;1.00
34201;DHT22;20469;55.638;37.670;2023-05-07T02:50:28;2.00;1.00
34201;DHT22;20469;55.638;37.670;2023-05-07T02:52:55;2.00;1.00
34201;DHT22;20469;55.638;37.670;2023-05-07T02:55:22;2.20;1.00
34201;DHT22;20469;55.638;37.670;2023-05-07T02:57:50;2.20;1.00
34201;DHT22;20469;55.638;37.670;2023-05-07T03:00:18;2.20;1.00
34201;DHT22;20469;55.638;37.670;2023-05-07T03:02:46;2.20;1.00
34201;DHT22;20469;55.638;37.670;2023-05-07T03:05:13;2.20;1.00
34201;DHT22;20469;55.638;37.670;2023-05-07T03:07:41;2.20;1.00
34201;DHT22;20469;55.638;37.670;2023-05-07T03:10:12;2.30;1.00
34201;DHT22;20469;55.638;37.670;2023-05-07T03:12:39;2.40;1.00
34201;DHT22;20469;55.638;37.670;2023-05-07T03:15:07;2.30;1.00
34201;DHT22;20469;55.638;37.670;2023-05-07T03:17:34;2.50;1.00
34201;DHT22;20469;55.638;37.670;2023-05-07T03:20:02;2.20;1.00
34201;DHT22;20469;55.638;37.670;2023-05-07T03:22:30;2.50;1.00
34201;DHT22;20469;55.638;37.670;2023-05-07T03:24:57;2.80;1.00
34201;DHT22;20469;55.638;37.670;2023-05-07T03:27:24;2.60;1.00
34201;DHT22;20469;55.638;37.670;2023-05-07T03:29:51;2.60;1.00
34201;DHT22;20469;55.638;37.670;2023-05-07T03:32:19;2.30;1.00
34201;DHT22;20469;55.638;37.670;2023-05-07T03:34:46;2.40;1.00
34201;DHT22;20469;55.638;37.670;2023-05-07T03:37:13;2.50;1.00
34201;DHT22;20469;55.638;37.670;2023-05-07T03:39:40;2.60;1.00
34201;DHT22;20469;55.638;37.670;2023-05-07T03:42:07;2.60;1.00
34201;DHT22;20469;55.638;37.670;2023-05-07T03:44:34;2.60;1.00
34201;DHT22;20469;55.638;37.670;2023-05-07T03:47:03;2.50;1.00
34201;DHT22;20469;55.638;37.670;2023-05-07T03:49:31;2.50;1.00
34201;DHT22;20469;55.638;37.670;2023-05-07T03:51:58;2.70;1.00
34201;DHT22;20469;55.638;37.670;2023-05-07T03:54:25;2.60;1.00
34201;DHT22;20469;55.638;37.670;2023-05-07T03:56:52;2.70;1.00
34201;DHT22;20469;55.638;37.670;2023-05-07T03:59:19;2.80;1.00
34201;DHT22;20469;55.638;37.670;2023-05-07T04:01:46;3.00;1.00
34201;DHT22;20469;55.638;37.670;2023-05-07T04:04:14;3.20;1.00
34201;DHT22;20469;55.638;37.670;2023-05-07T04:06:42;3.20;1.00
34201;DHT22;20469;55.638;37.670;2023-05-07T04:09:09;3.10;1.00
34201;DHT22;20469;55.638;37.670;2023-05-07T04:11:36;3.60;1.00
34201;DHT22;20469;55.638;37.670;2023-05-07T04:14:03;3.90;1.00
34201;DHT22;20469;55.638;37.670;2023-05-07T04:16:30;3.50;1.00
34201;DHT22;20469;55.638;37.670;2023-05-07T04:18:58;3.50;1.00
34201;DHT22;20469;55.638;37.670;2023-05-07T04:21:25;3.40;1.00
34201;DHT22;20469;55.638;37.670;2023-05-07T04:23:53;3.30;1.00
34201;DHT22;20469;55.638;37.670;2023-05-07T04:26:20;3.60;1.00
34201;DHT22;20469;55.638;37.670;2023-05-07T04:28:48;4.00;1.00
34201;DHT22;20469;55.638;37.670;2023-05-07T04:31:15;3.90;1.00
34201;DHT22;20469;55.638;37.670;2023-05-07T04:33:42;4.40;1.00
34201;DHT22;20469;55.638;37.670;2023-05-07T04:36:09;4.30;1.00
34201;DHT22;20469;55.638;37.670;2023-05-07T04:38:36;4.60;1.00
34201;DHT22;20469;55.638;37.670;2023-05-07T04:41:05;4.50;1.00
34201;DHT22;20469;55.638;37.670;2023-05-07T04:43:32;4.40;1.00
34201;DHT22;20469;55.638;37.670;2023-05-07T04:46:00;4.50;1.00
34201;DHT22;20469;55.638;37.670;2023-05-07T04:48:27;4.60;1.00
34201;DHT22;20469;55.638;37.670;2023-05-07T04:50:55;4.30;1.00
34201;DHT22;20469;55.638;37.670;2023-05-07T04:53:23;4.70;1.00
34201;DHT22;20469;55.638;37.670;2023-05-07T04:55:58;4.80;1.00
34201;DHT22;20469;55.638;37.670;2023-05-07T04:58:25;5.00;1.00
34201;DHT22;20469;55.638;37.670;2023-05-07T05:00:52;4.60;1.00
34201;DHT22;20469;55.638;37.670;2023-05-07T05:03:19;4.80;1.00
34201;DHT22;20469;55.638;37.670;2023-05-07T05:05:49;5.10;1.00
34201;DHT22;20469;55.638;37.670;2023-05-07T05:08:16;4.90;1.00
34201;DHT22;20469;55.638;37.670;2023-05-07T05:10:44;5.10;1.00
34201;DHT22;20469;55.638;37.670;2023-05-07T05:13:11;5.20;1.00
34201;DHT22;20469;55.638;37.670;2023-05-07T05:15:39;5.40;1.00
34201;DHT22;20469;55.638;37.670;2023-05-07T05:18:07;5.30;1.00
34201;DHT22;20469;55.638;37.670;2023-05-07T05:20:34;5.40;1.00
34201;DHT22;20469;55.638;37.670;2023-05-07T05:23:01;5.20;1.00
34201;DHT22;20469;55.638;37.670;2023-05-07T05:25:28;5.60;1.00
34201;DHT22;20469;55.638;37.670;2023-05-07T05:27:55;6.10;1.00
34201;DHT22;20469;55.638;37.670;2023-05-07T05:30:23;5.80;1.00
34201;DHT22;20469;55.638;37.670;2023-05-07T05:32:50;5.00;1.00
34201;DHT22;20469;55.638;37.670;2023-05-07T05:35:18;5.30;1.00
34201;DHT22;20469;55.638;37.670;2023-05-07T05:37:45;5.40;1.00
34201;DHT22;20469;55.638;37.670;2023-05-07T05:40:12;5.80;1.00
34201;DHT22;20469;55.638;37.670;2023-05-07T05:42:39;5.90;1.00
34201;DHT22;20469;55.638;37.670;2023-05-07T05:45:07;6.20;1.00
34201;DHT22;20469;55.638;37.670;2023-05-07T05:47:34;6.20;1.00
34201;DHT22;20469;55.638;37.670;2023-05-07T05:50:02;6.70;1.00
34201;DHT22;20469;55.638;37.670;2023-05-07T05:52:31;5.50;1.00
34201;DHT22;20469;55.638;37.670;2023-05-07T05:54:58;5.90;1.00
34201;DHT22;20469;55.638;37.670;2023-05-07T05:57:26;6.10;1.00
34201;DHT22;20469;55.638;37.670;2023-05-07T05:59:54;6.70;1.00
34201;DHT22;20469;55.638;37.670;2023-05-07T06:02:21;6.70;1.00
34201;DHT22;20469;55.638;37.670;2023-05-07T06:04:49;6.50;1.00
34201;DHT22;20469;55.638;37.670;2023-05-07T06:07:16;6.30;1.00
34201;DHT22;20469;55.638;37.670;2023-05-07T06:09:44;7.20;1.00
34201;DHT22;20469;55.638;37.670;2023-05-07T06:12:12;7.20;1.00
34201;DHT22;20469;55.638;37.670;2023-05-07T06:14:39;6.80;1.00
34201;DHT22;20469;55.638;37.670;2023-05-07T06:17:07;6.80;1.00
34201;DHT22;20469;55.638;37.670;2023-05-07T06:19:34;6.10;1.00
34201;DHT22;20469;55.638;37.670;2023-05-07T06:22:02;6.30;1.00
34201;DHT22;20469;55.638;37.670;2023-05-07T06:24:29;7.00;1.00
34201;DHT22;20469;55.638;37.670;2023-05-07T06:26:56;7.40;1.00
34201;DHT22;20469;55.638;37.670;2023-05-07T06:29:25;8.30;1.00
34201;DHT22;20469;55.638;37.670;2023-05-07T06:31:53;8.10;1.00
34201;DHT22;20469;55.638;37.670;2023-05-07T06:34:20;8.30;1.00
34201;DHT22;20469;55.638;37.670;2023-05-07T06:36:48;8.20;1.00
34201;DHT22;20469;55.638;37.670;2023-05-07T06:39:15;7.80;1.00
34201;DHT22;20469;55.638;37.670;2023-05-07T06:41:42;8.90;1.00
34201;DHT22;20469;55.638;37.670;2023-05-07T06:44:09;8.70;1.00
34201;DHT22;20469;55.638;37.670;2023-05-07T06:46:36;7.90;1.00
34201;DHT22;20469;55.638;37.670;2023-05-07T06:49:04;8.20;1.00
34201;DHT22;20469;55.638;37.670;2023-05-07T06:51:31;8.00;1.00
34201;DHT22;20469;55.638;37.670;2023-05-07T06:53:58;7.90;1.00
34201;DHT22;20469;55.638;37.670;2023-05-07T06:56:26;8.60;1.00
34201;DHT22;20469;55.638;37.670;2023-05-07T06:58:53;7.70;1.00
34201;DHT22;20469;55.638;37.670;2023-05-07T07:01:20;7.40;1.00
34201;DHT22;20469;55.638;37.670;2023-05-07T07:03:48;7.90;1.00
34201;DHT22;20469;55.638;37.670;2023-05-07T07:06:15;9.20;1.00
34201;DHT22;20469;55.638;37.670;2023-05-07T07:08:42;9.60;1.00
34201;DHT22;20469;55.638;37.670;2023-05-07T07:11:10;9.20;1.00
34201;DHT22;20469;55.638;37.670;2023-05-07T07:13:37;9.00;1.00
34201;DHT22;20469;55.638;37.670;2023-05-07T07:16:04;9.80;1.00
34201;DHT22;20469;55.638;37.670;2023-05-07T07:18:32;9.50;1.00
34201;DHT22;20469;55.638;37.670;2023-05-07T07:20:59;9.90;1.00
34201;DHT22;20469;55.638;37.670;2023-05-07T07:23:26;9.60;1.00
34201;DHT22;20469;55.638;37.670;2023-05-07T07:25:53;8.70;1.00
34201;DHT22;20469;55.638;37.670;2023-05-07T07:28:21;8.70;1.00
34201;DHT22;20469;55.638;37.670;2023-05-07T07:30:49;8.00;1.00
34201;DHT22;20469;55.638;37.670;2023-05-07T07:33:16;7.80;1.00
34201;DHT22;20469;55.638;37.670;2023-05-07T07:35:43;7.70;1.00
34201;DHT22;20469;55.638;37.670;2023-05-07T07:38:11;7.60;1.00
34201;DHT22;20469;55.638;37.670;2023-05-07T07:40:38;9.60;1.00
34201;DHT22;20469;55.638;37.670;2023-05-07T07:43:06;8.90;1.00
34201;DHT22;20469;55.638;37.670;2023-05-07T07:45:33;9.80;1.00
34201;DHT22;20469;55.638;37.670;2023-05-07T07:48:01;9.70;1.00
34201;DHT22;20469;55.638;37.670;2023-05-07T07:50:28;8.70;1.00
34201;DHT22;20469;55.638;37.670;2023-05-07T07:53:10;8.10;1.00
34201;DHT22;20469;55.638;37.670;2023-05-07T07:55:40;7.10;1.00
34201;DHT22;20469;55.638;37.670;2023-05-07T07:58:07;6.90;1.00
34201;DHT22;20469;55.638;37.670;2023-05-07T08:00:34;7.80;1.00
34201;DHT22;20469;55.638;37.670;2023-05-07T08:03:02;8.60;1.00
34201;DHT22;20469;55.638;37.670;2023-05-07T08:05:30;9.70;1.00
34201;DHT22;20469;55.638;37.670;2023-05-07T08:07:57;8.70;1.00
34201;DHT22;20469;55.638;37.670;2023-05-07T08:10:25;8.50;1.00
34201;DHT22;20469;55.638;37.670;2023-05-07T08:12:52;9.20;1.00
34201;DHT22;20469;55.638;37.670;2023-05-07T08:15:19;9.60;1.00
34201;DHT22;20469;55.638;37.670;2023-05-07T08:17:47;8.70;1.00
34201;DHT22;20469;55.638;37.670;2023-05-07T08:20:14;7.60;1.00
34201;DHT22;20469;55.638;37.670;2023-05-07T08:22:41;7.50;1.00
34201;DHT22;20469;55.638;37.670;2023-05-07T08:25:09;7.70;1.00
34201;DHT22;20469;55.638;37.670;2023-05-07T08:27:36;9.30;1.00
34201;DHT22;20469;55.638;37.670;2023-05-07T08:30:04;10.50;1.00
34201;DHT22;20469;55.638;37.670;2023-05-07T08:32:31;9.80;1.00
34201;DHT22;20469;55.638;37.670;2023-05-07T08:34:59;8.70;1.00
34201;DHT22;20469;55.638;37.670;2023-05-07T08:37:26;8.50;1.00
34201;DHT22;20469;55.638;37.670;2023-05-07T08:39:54;9.50;1.00
34201;DHT22;20469;55.638;37.670;2023-05-07T08:42:23;9.50;1.00
34201;DHT22;20469;55.638;37.670;2023-05-07T08:44:51;9.50;1.00
34201;DHT22;20469;55.638;37.670;2023-05-07T08:47:23;9.60;1.00
34201;DHT22;20469;55.638;37.670;2023-05-07T08:49:55;8.80;1.00
34201;DHT22;20469;55.638;37.670;2023-05-07T08:52:22;8.60;1.00
34201;DHT22;20469;55.638;37.670;2023-05-07T08:54:50;8.90;1.00
34201;DHT22;20469;55.638;37.670;2023-05-07T08:57:17;8.60;1.00
34201;DHT22;20469;55.638;37.670;2023-05-07T08:59:44;8.40;1.00
34201;DHT22;20469;55.638;37.670;2023-05-07T09:02:11;8.60;1.00
34201;DHT22;20469;55.638;37.670;2023-05-07T09:04:39;8.30;1.00
34201;DHT22;20469;55.638;37.670;2023-05-07T09:07:06;8.10;1.00
34201;DHT22;20469;55.638;37.670;2023-05-07T09:09:33;10.40;1.00
34201;DHT22;20469;55.638;37.670;2023-05-07T09:12:00;12.70;1.00
34201;DHT22;20469;55.638;37.670;2023-05-07T09:14:29;14.40;1.00
34201;DHT22;20469;55.638;37.670;2023-05-07T09:16:57;16.60;1.00
34201;DHT22;20469;55.638;37.670;2023-05-07T09:19:25;15.00;1.00
34201;DHT22;20469;55.638;37.670;2023-05-07T09:22:03;16.90;1.00
34201;DHT22;20469;55.638;37.670;2023-05-07T09:24:30;15.60;1.00
34201;DHT22;20469;55.638;37.670;2023-05-07T09:27:02;13.20;1.00
34201;DHT22;20469;55.638;37.670;2023-05-07T09:29:29;9.70;1.00
34201;DHT22;20469;55.638;37.670;2023-05-07T09:32:02;8.70;1.00
34201;DHT22;20469;55.638;37.670;2023-05-07T09:34:30;13.00;1.00
34201;DHT22;20469;55.638;37.670;2023-05-07T09:37:05;14.90;1.00
34201;DHT22;20469;55.638;37.670;2023-05-07T09:39:46;17.90;1.00
34201;DHT22;20469;55.638;37.670;2023-05-07T09:42:14;15.70;1.00
34201;DHT22;20469;55.638;37.670;2023-05-07T09:44:45;12.90;1.00
34201;DHT22;20469;55.638;37.670;2023-05-07T09:47:18;14.70;1.00
34201;DHT22;20469;55.638;37.670;2023-05-07T09:49:47;15.90;1.00
34201;DHT22;20469;55.638;37.670;2023-05-07T09:52:16;11.20;1.00
34201;DHT22;20469;55.638;37.670;2023-05-07T09:54:45;10.20;1.00
34201;DHT22;20469;55.638;37.670;2023-05-07T09:57:14;9.50;1.00
34201;DHT22;20469;55.638;37.670;2023-05-07T09:59:43;9.60;1.00
34201;DHT22;20469;55.638;37.670;2023-05-07T10:02:11;11.00;1.00
34201;DHT22;20469;55.638;37.670;2023-05-07T10:04:39;13.30;1.00
34201;DHT22;20469;55.638;37.670;2023-05-07T10:07:07;16.30;1.00
34201;DHT22;20469;55.638;37.670;2023-05-07T10:09:36;17.70;1.00
34201;DHT22;20469;55.638;37.670;2023-05-07T10:12:06;18.30;1.00
34201;DHT22;20469;55.638;37.670;2023-05-07T10:14:33;20.80;1.00
34201;DHT22;20469;55.638;37.670;2023-05-07T10:17:02;19.30;1.00
34201;DHT22;20469;55.638;37.670;2023-05-07T10:19:31;17.90;1.00
34201;DHT22;20469;55.638;37.670;2023-05-07T10:22:05;15.00;1.00
34201;DHT22;20469;55.638;37.670;2023-05-07T10:24:34;16.70;1.00
34201;DHT22;20469;55.638;37.670;2023-05-07T10:27:11;17.20;1.00
34201;DHT22;20469;55.638;37.670;2023-05-07T10:29:49;15.90;1.00
34201;DHT22;20469;55.638;37.670;2023-05-07T10:32:40;18.10;1.00
34201;DHT22;20469;55.638;37.670;2023-05-07T10:35:17;18.00;1.00
34201;DHT22;20469;55.638;37.670;2023-05-07T10:37:46;14.00;1.00
34201;DHT22;20469;55.638;37.670;2023-05-07T10:40:16;11.90;1.00
34201;DHT22;20469;55.638;37.670;2023-05-07T10:42:58;11.50;1.00
34201;DHT22;20469;55.638;37.670;2023-05-07T10:45:27;11.50;1.00
34201;DHT22;20469;55.638;37.670;2023-05-07T10:48:06;10.60;1.00
34201;DHT22;20469;55.638;37.670;2023-05-07T10:51:20;10.30;1.00
34201;DHT22;20469;55.638;37.670;2023-05-07T10:53:48;14.10;1.00
34201;DHT22;20469;55.638;37.670;2023-05-07T10:56:29;14.20;1.00
34201;DHT22;20469;55.638;37.670;2023-05-07T11:01:54;17.90;1.00
34201;DHT22;20469;55.638;37.670;2023-05-07T11:04:23;16.40;1.00
34201;DHT22;20469;55.638;37.670;2023-05-07T11:10:01;13.90;1.00
34201;DHT22;20469;55.638;37.670;2023-05-07T11:15:09;11.30;1.00
34201;DHT22;20469;55.638;37.670;2023-05-07T11:17:54;11.20;1.00
34201;DHT22;20469;55.638;37.670;2023-05-07T11:20:48;11.50;1.00
34201;DHT22;20469;55.638;37.670;2023-05-07T11:26:04;11.30;1.00
34201;DHT22;20469;55.638;37.670;2023-05-07T11:28:39;10.90;1.00
34201;DHT22;20469;55.638;37.670;2023-05-07T11:31:07;12.80;1.00
34201;DHT22;20469;55.638;37.670;2023-05-07T11:33:36;12.80;1.00
34201;DHT22;20469;55.638;37.670;2023-05-07T11:36:04;14.60;1.00
34201;DHT22;20469;55.638;37.670;2023-05-07T11:38:35;12.70;1.00
34201;DHT22;20469;55.638;37.670;2023-05-07T11:41:03;13.20;1.00
34201;DHT22;20469;55.638;37.670;2023-05-07T11:43:32;11.80;1.00
34201;DHT22;20469;55.638;37.670;2023-05-07T11:46:10;11.60;1.00
34201;DHT22;20469;55.638;37.670;2023-05-07T11:48:38;11.90;1.00
34201;DHT22;20469;55.638;37.670;2023-05-07T11:51:07;11.30;1.00
34201;DHT22;20469;55.638;37.670;2023-05-07T11:53:42;10.80;1.00
34201;DHT22;20469;55.638;37.670;2023-05-07T11:56:11;11.10;1.00
34201;DHT22;20469;55.638;37.670;2023-05-07T11:58:39;10.20;1.00
34201;DHT22;20469;55.638;37.670;2023-05-07T12:01:12;10.60;1.00
34201;DHT22;20469;55.638;37.670;2023-05-07T12:03:44;10.50;1.00
34201;DHT22;20469;55.638;37.670;2023-05-07T12:06:16;10.60;1.00
34201;DHT22;20469;55.638;37.670;2023-05-07T12:08:45;10.00;1.00
34201;DHT22;20469;55.638;37.670;2023-05-07T12:11:16;10.10;1.00
34201;DHT22;20469;55.638;37.670;2023-05-07T12:13:45;10.40;1.00
34201;DHT22;20469;55.638;37.670;2023-05-07T12:16:12;13.80;1.00
34201;DHT22;20469;55.638;37.670;2023-05-07T12:18:40;13.90;1.00
34201;DHT22;20469;55.638;37.670;2023-05-07T12:21:07;11.70;1.00
34201;DHT22;20469;55.638;37.670;2023-05-07T12:23:36;12.00;1.00
34201;DHT22;20469;55.638;37.670;2023-05-07T12:26:04;11.50;1.00
34201;DHT22;20469;55.638;37.670;2023-05-07T12:28:37;15.80;1.00
34201;DHT22;20469;55.638;37.670;2023-05-07T12:31:06;11.80;1.00
34201;DHT22;20469;55.638;37.670;2023-05-07T12:33:34;11.00;1.00
34201;DHT22;20469;55.638;37.670;2023-05-07T12:36:06;11.40;1.00
34201;DHT22;20469;55.638;37.670;2023-05-07T12:38:38;11.00;1.00
34201;DHT22;20469;55.638;37.670;2023-05-07T12:41:07;10.80;1.00
34201;DHT22;20469;55.638;37.670;2023-05-07T12:43:34;10.70;1.00
34201;DHT22;20469;55.638;37.670;2023-05-07T12:46:06;10.70;1.00
34201;DHT22;20469;55.638;37.670;2023-05-07T12:48:37;12.70;1.00
34201;DHT22;20469;55.638;37.670;2023-05-07T12:51:05;14.70;1.00
34201;DHT22;20469;55.638;37.670;2023-05-07T12:53:33;15.20;1.00
34201;DHT22;20469;55.638;37.670;2023-05-07T12:56:06;15.60;1.00
34201;DHT22;20469;55.638;37.670;2023-05-07T12:58:34;15.00;1.00
34201;DHT22;20469;55.638;37.670;2023-05-07T13:01:07;13.80;1.00
34201;DHT22;20469;55.638;37.670;2023-05-07T13:03:38;12.10;1.00
34201;DHT22;20469;55.638;37.670;2023-05-07T13:06:09;11.40;1.00
34201;DHT22;20469;55.638;37.670;2023-05-07T13:08:39;10.80;1.00
34201;DHT22;20469;55.638;37.670;2023-05-07T13:11:12;10.50;1.00
34201;DHT22;20469;55.638;37.670;2023-05-07T13:13:41;10.70;1.00
34201;DHT22;20469;55.638;37.670;2023-05-07T13:16:10;10.50;1.00
34201;DHT22;20469;55.638;37.670;2023-05-07T13:18:39;10.70;1.00
34201;DHT22;20469;55.638;37.670;2023-05-07T13:21:07;11.20;1.00
34201;DHT22;20469;55.638;37.670;2023-05-07T13:23:35;10.90;1.00
34201;DHT22;20469;55.638;37.670;2023-05-07T13:26:02;12.40;1.00
34201;DHT22;20469;55.638;37.670;2023-05-07T13:28:40;13.60;1.00
34201;DHT22;20469;55.638;37.670;2023-05-07T13:31:09;15.60;1.00
34201;DHT22;20469;55.638;37.670;2023-05-07T13:33:36;13.50;1.00
34201;DHT22;20469;55.638;37.670;2023-05-07T13:36:03;11.70;1.00
34201;DHT22;20469;55.638;37.670;2023-05-07T13:38:32;11.00;1.00
34201;DHT22;20469;55.638;37.670;2023-05-07T13:40:59;10.00;1.00
34201;DHT22;20469;55.638;37.670;2023-05-07T13:43:27;10.10;1.00
34201;DHT22;20469;55.638;37.670;2023-05-07T13:45:54;9.80;1.00
34201;DHT22;20469;55.638;37.670;2023-05-07T13:48:21;13.40;1.00
34201;DHT22;20469;55.638;37.670;2023-05-07T13:50:48;14.60;1.00
34201;DHT22;20469;55.638;37.670;2023-05-07T13:53:15;15.70;1.00
34201;DHT22;20469;55.638;37.670;2023-05-07T13:55:45;15.70;1.00
34201;DHT22;20469;55.638;37.670;2023-05-07T13:58:12;12.80;1.00
34201;DHT22;20469;55.638;37.670;2023-05-07T14:00:39;11.20;1.00
34201;DHT22;20469;55.638;37.670;2023-05-07T14:03:07;10.50;1.00
34201;DHT22;20469;55.638;37.670;2023-05-07T14:05:34;10.70;1.00
34201;DHT22;20469;55.638;37.670;2023-05-07T14:08:02;11.20;1.00
34201;DHT22;20469;55.638;37.670;2023-05-07T14:10:31;10.70;1.00
34201;DHT22;20469;55.638;37.670;2023-05-07T14:13:01;10.30;1.00
34201;DHT22;20469;55.638;37.670;2023-05-07T14:15:29;10.40;1.00
34201;DHT22;20469;55.638;37.670;2023-05-07T14:17:56;10.30;1.00
34201;DHT22;20469;55.638;37.670;2023-05-07T14:20:25;10.60;1.00
34201;DHT22;20469;55.638;37.670;2023-05-07T14:22:52;9.90;1.00
34201;DHT22;20469;55.638;37.670;2023-05-07T14:25:21;9.80;1.00
34201;DHT22;20469;55.638;37.670;2023-05-07T14:27:50;9.90;1.00
34201;DHT22;20469;55.638;37.670;2023-05-07T14:30:17;10.70;1.00
34201;DHT22;20469;55.638;37.670;2023-05-07T14:32:45;11.80;1.00
34201;DHT22;20469;55.638;37.670;2023-05-07T14:35:13;12.10;1.00
34201;DHT22;20469;55.638;37.670;2023-05-07T14:37:40;12.10;1.00
34201;DHT22;20469;55.638;37.670;2023-05-07T14:40:08;12.70;1.00
34201;DHT22;20469;55.638;37.670;2023-05-07T14:42:36;11.60;1.00
34201;DHT22;20469;55.638;37.670;2023-05-07T14:45:03;11.90;1.00
34201;DHT22;20469;55.638;37.670;2023-05-07T14:47:34;10.70;1.00
34201;DHT22;20469;55.638;37.670;2023-05-07T14:50:01;10.80;1.00
34201;DHT22;20469;55.638;37.670;2023-05-07T14:52:29;10.20;1.00
34201;DHT22;20469;55.638;37.670;2023-05-07T14:54:57;10.30;1.00
34201;DHT22;20469;55.638;37.670;2023-05-07T14:57:24;10.50;1.00
34201;DHT22;20469;55.638;37.670;2023-05-07T14:59:51;10.20;1.00
34201;DHT22;20469;55.638;37.670;2023-05-07T15:02:18;10.00;1.00
34201;DHT22;20469;55.638;37.670;2023-05-07T15:04:47;10.20;1.00
34201;DHT22;20469;55.638;37.670;2023-05-07T15:07:15;10.30;1.00
34201;DHT22;20469;55.638;37.670;2023-05-07T15:09:43;10.50;1.00
34201;DHT22;20469;55.638;37.670;2023-05-07T15:12:10;10.30;1.00
34201;DHT22;20469;55.638;37.670;2023-05-07T15:14:39;10.00;1.00
34201;DHT22;20469;55.638;37.670;2023-05-07T15:17:06;9.70;1.00
34201;DHT22;20469;55.638;37.670;2023-05-07T15:19:34;9.70;1.00
34201;DHT22;20469;55.638;37.670;2023-05-07T15:22:01;9.50;1.00
34201;DHT22;20469;55.638;37.670;2023-05-07T15:24:30;10.30;1.00
34201;DHT22;20469;55.638;37.670;2023-05-07T15:26:57;9.90;1.00
34201;DHT22;20469;55.638;37.670;2023-05-07T15:29:25;10.20;1.00
34201;DHT22;20469;55.638;37.670;2023-05-07T15:31:52;9.90;1.00
34201;DHT22;20469;55.638;37.670;2023-05-07T15:34:21;10.40;1.00
34201;DHT22;20469;55.638;37.670;2023-05-07T15:36:48;10.50;1.00
34201;DHT22;20469;55.638;37.670;2023-05-07T15:39:15;10.10;1.00
34201;DHT22;20469;55.638;37.670;2023-05-07T15:41:43;10.10;1.00
34201;DHT22;20469;55.638;37.670;2023-05-07T15:44:10;10.20;1.00
34201;DHT22;20469;55.638;37.670;2023-05-07T15:46:37;9.90;1.00
34201;DHT22;20469;55.638;37.670;2023-05-07T15:49:04;9.70;1.00
34201;DHT22;20469;55.638;37.670;2023-05-07T15:51:34;9.80;1.00
34201;DHT22;20469;55.638;37.670;2023-05-07T15:54:01;9.60;1.00
34201;DHT22;20469;55.638;37.670;2023-05-07T15:56:29;9.60;1.00
34201;DHT22;20469;55.638;37.670;2023-05-07T15:58:59;9.50;1.00